Terminal Aerodrome Forecast
Issued by NWS Blacksburg, VA

Home | Current Version | Previous Version | Text Only | Print | Product List | Glossary On
Versions: 1 2 3 4 5 6 7 8 9 10 11 12 13 14 15 16 17 18 19 20 21 22 23 24 25 26 27 28 29 30 31 32 33 34 35
000
FTUS41 KRNK 290530
TAFDAN
TAF
KDAN 290530Z 2906/3006 00000KT 4SM BR SCT003 BKN070
      TEMPO 2910/2912 3SM BR BKN003
     FM291400 20005KT P6SM SCT030 BKN050
     FM300100 00000KT P6SM SCT050 BKN250=

USA.gov is the U.S. government's official web portal to all federal, state and local government web resources and services.